AirNav   Air Wisconsin Up To $57,000 Bonus
 
 1215 users online  

MN81 J J and T Airport
East Grand Forks, Minnesota, USA

GOING TO EAST GRAND FORKS?


FAA INFORMATION EFFECTIVE 15 JULY 2021

Location

FAA Identifier: MN81
Lat/Long: 47-59-19.9270N 097-01-52.2690W
47-59.332117N 097-01.871150W
47.9888686,-97.0311858
(estimated)
Elevation: 828 ft. / 252 m (estimated)
Variation: 07E (1985)
From city: 4 miles S of EAST GRAND FORKS, MN
Time zone: UTC -5 (UTC -6 during Standard Time)
Zip code: 56721

Airport Operations

Airport use: Private use, PERSONAL USE.
Activation date: 09/1990
Control tower: no
ARTCC: MINNEAPOLIS CENTER
FSS: PRINCETON FLIGHT SERVICE STATION
Attendance: UNATNDD
Segmented circle: no

Airport Communications

WX ASOS at GFK (6 nm SW): PHONE 701-772-3486
WX AWOS-3 at CKN (19 nm SE): 126.425 (218-281-3018)

Nearby radio navigation aids

VOR radial/distance  VOR name  Freq  Var
GFKr063/6.5GRAND FORKS VOR/DME114.3009E
TVFr254/34.2THIEF RIVER FALLS VOR/DME108.4008E

 
NDB name  Hdg/Dist  Freq  Var  ID
HISER029/10.534506EGF --. ..-.

Airport Services

Runway Information

Runway 17/35

Dimensions: 2600 x 80 ft. / 792 x 24 m
Surface: turf
RUNWAY 17  RUNWAY 35
Traffic pattern: leftleft
Obstructions: noneplines, 100 ft. from runway

Airport Ownership and Management from official FAA records

Ownership: Privately-owned
Owner: JOHN P JENSON
2016 4TH AVE N
GRAND FORKS, ND 58201
Phone 701-772-6510

Airport Operational Statistics

Aircraft based on the field: 3
Single engine airplanes: 3
    

Additional Remarks

DO NOT CHART PER MINNESOTA DEPARTMENT OF TRANSPORTATION
FOR CD CTC MINNEAPOLIS ARTCC AT 651-463-5588.

Instrument Procedures

There are no published instrument procedures at MN81.

Some nearby airports with instrument procedures:

KGFK - Grand Forks International Airport (6 nm SW)
KRDR - Grand Forks Air Force Base (15 nm W)
D37 - Warren Municipal Airport (18 nm NE)
KCKN - Crookston Municipal Airport Kirkwood Field (19 nm SE)
4V4 - Northwood Municipal Airport-Vince Field (28 nm SW)
 
Loc | Ops | Rwys | IFR | FBO | Links
Com | Nav | Svcs | Stats | Notes
Area around MN81 (J J and T Airport)
 
Road maps at: MapQuest Bing Google
 
Aerial photo
No photo
 
Sectional chart

 
Airport distance calculator
Flying to J J and T Airport? Find the distance to fly.

From to MN81

Sunrise and sunset
Times for 28-Jul-2021
 Local
(UTC-5)
 Zulu
(UTC)
Morning civil twilight05:2310:23
Sunrise06:0011:00
Sunset21:0902:09
Evening civil twilight21:4602:46

Current date and time
Zulu (UTC)  28-Jul-2021 23:00:36
Local (UTC-5)  28-Jul-2021 18:00:36
 
METAR
KGFK 
7nm W 
282253Z 36021G28KT 10SM FEW045 SCT150 32/16 A2989 RMK AO2 PK WND 35028/2252 SLP117 T03220161
KRDR 
15nm W 
282156Z 35012G19KT 10SM FEW050 FEW170 SCT200 31/11 A2991 RMK AO2A SLP128 T03070106 $
KCKN 
19nm SE 
282235Z AUTO 36017G21KT 10SM CLR 29/18 A2989 RMK AO2
TAF
KGFK 
7nm W 
282121Z 2821/2918 35017G27KT 6SM HZ SCT029 FM290200 36012KT P6SM FEW250 FM290300 34007KT P6SM SKC FM291600 36010G18KT P6SM FEW250
KRDR 
15nm W 
281800Z 2818/2924 33010G15KT 9999 BKN014 QNH2983INS BECMG 2819/2820 34015G20KT 9999 BKN020 510033 QNH3000INS BECMG 2902/2903 36009KT 9999 FEW020 SCT210 510033 QNH3000INS BECMG 2919/2920 35010G15KT 9999 SKC 510043 QNH3014INS TX29/2822Z TN15/2911Z
NOTAMs
Click for the latest NOTAMs
NOTAMs are issued by the DoD/FAA and will open in a separate window not controlled by AirNav.

 

 
 

Would you like to see your business listed on this page?

 If your business provides an interesting product or service to pilots, flight crews, aircraft, or users of the J J and T Airport, you should consider listing it here.  To start the listing process, click on the button below
 
Add a business
 

Other Pages about J J and T Airport

Update a link
 
Copyright © AirNav, LLC. All rights reserved. Privacy Policy  Contact